sensor_id;sensor_type;location;lat;lon;timestamp;P1;durP1;ratioP1;P2;durP2;ratioP2
21810;SDS011;11067;48.788;9.208;2023-02-28T00:01:09;3.42;;;2.50;;
21810;SDS011;11067;48.788;9.208;2023-02-28T00:03:36;4.33;;;2.57;;
21810;SDS011;11067;48.788;9.208;2023-02-28T00:06:02;4.80;;;2.50;;
21810;SDS011;11067;48.788;9.208;2023-02-28T00:08:28;5.18;;;2.63;;
21810;SDS011;11067;48.788;9.208;2023-02-28T00:10:54;4.00;;;2.50;;
21810;SDS011;11067;48.788;9.208;2023-02-28T00:13:19;4.03;;;2.50;;
21810;SDS011;11067;48.788;9.208;2023-02-28T00:15:45;4.10;;;2.30;;
21810;SDS011;11067;48.788;9.208;2023-02-28T00:18:11;3.63;;;2.27;;
21810;SDS011;11067;48.788;9.208;2023-02-28T00:20:37;5.37;;;2.50;;
21810;SDS011;11067;48.788;9.208;2023-02-28T00:23:02;4.18;;;2.60;;
21810;SDS011;11067;48.788;9.208;2023-02-28T00:25:28;4.65;;;2.70;;
21810;SDS011;11067;48.788;9.208;2023-02-28T00:27:53;4.30;;;2.60;;
21810;SDS011;11067;48.788;9.208;2023-02-28T00:30:22;4.03;;;2.50;;
21810;SDS011;11067;48.788;9.208;2023-02-28T00:32:48;4.10;;;2.50;;
21810;SDS011;11067;48.788;9.208;2023-02-28T00:35:15;4.83;;;2.40;;
21810;SDS011;11067;48.788;9.208;2023-02-28T00:37:41;3.78;;;2.50;;
21810;SDS011;11067;48.788;9.208;2023-02-28T00:40:07;4.57;;;2.70;;
21810;SDS011;11067;48.788;9.208;2023-02-28T00:42:34;3.03;;;2.30;;
21810;SDS011;11067;48.788;9.208;2023-02-28T00:45:00;3.60;;;2.57;;
21810;SDS011;11067;48.788;9.208;2023-02-28T00:47:26;3.15;;;2.50;;
21810;SDS011;11067;48.788;9.208;2023-02-28T00:49:51;4.25;;;2.50;;
21810;SDS011;11067;48.788;9.208;2023-02-28T00:52:17;2.78;;;2.38;;
21810;SDS011;11067;48.788;9.208;2023-02-28T00:54:42;4.82;;;2.45;;
21810;SDS011;11067;48.788;9.208;2023-02-28T00:57:08;4.70;;;2.90;;
21810;SDS011;11067;48.788;9.208;2023-02-28T00:59:33;4.55;;;2.80;;
21810;SDS011;11067;48.788;9.208;2023-02-28T01:01:59;3.35;;;2.60;;
21810;SDS011;11067;48.788;9.208;2023-02-28T01:04:25;2.97;;;2.50;;
21810;SDS011;11067;48.788;9.208;2023-02-28T01:06:50;4.63;;;2.43;;
21810;SDS011;11067;48.788;9.208;2023-02-28T01:09:16;4.40;;;2.60;;
21810;SDS011;11067;48.788;9.208;2023-02-28T01:11:41;4.63;;;2.70;;
21810;SDS011;11067;48.788;9.208;2023-02-28T01:14:09;5.10;;;2.80;;
21810;SDS011;11067;48.788;9.208;2023-02-28T01:16:37;4.55;;;2.90;;
21810;SDS011;11067;48.788;9.208;2023-02-28T01:19:03;4.43;;;2.77;;
21810;SDS011;11067;48.788;9.208;2023-02-28T01:21:28;3.77;;;2.70;;
21810;SDS011;11067;48.788;9.208;2023-02-28T01:23:56;3.97;;;2.70;;
21810;SDS011;11067;48.788;9.208;2023-02-28T01:26:22;4.18;;;2.83;;
21810;SDS011;11067;48.788;9.208;2023-02-28T01:28:49;4.05;;;2.90;;
21810;SDS011;11067;48.788;9.208;2023-02-28T01:31:15;4.95;;;2.97;;
21810;SDS011;11067;48.788;9.208;2023-02-28T01:33:41;4.03;;;2.95;;
21810;SDS011;11067;48.788;9.208;2023-02-28T01:36:14;3.43;;;2.77;;
21810;SDS011;11067;48.788;9.208;2023-02-28T01:38:42;5.37;;;3.03;;
21810;SDS011;11067;48.788;9.208;2023-02-28T01:41:08;3.70;;;2.88;;
21810;SDS011;11067;48.788;9.208;2023-02-28T01:46:14;4.43;;;3.30;;
21810;SDS011;11067;48.788;9.208;2023-02-28T01:48:46;4.60;;;3.20;;
21810;SDS011;11067;48.788;9.208;2023-02-28T01:51:13;6.75;;;3.05;;
21810;SDS011;11067;48.788;9.208;2023-02-28T01:53:51;4.07;;;2.83;;
21810;SDS011;11067;48.788;9.208;2023-02-28T01:56:20;4.72;;;3.30;;
21810;SDS011;11067;48.788;9.208;2023-02-28T01:58:50;4.55;;;3.10;;
21810;SDS011;11067;48.788;9.208;2023-02-28T02:01:17;6.32;;;3.05;;
21810;SDS011;11067;48.788;9.208;2023-02-28T02:03:50;6.50;;;3.72;;
21810;SDS011;11067;48.788;9.208;2023-02-28T02:06:20;4.95;;;3.40;;
21810;SDS011;11067;48.788;9.208;2023-02-28T02:08:50;7.27;;;3.70;;
21810;SDS011;11067;48.788;9.208;2023-02-28T02:11:17;3.55;;;2.97;;
21810;SDS011;11067;48.788;9.208;2023-02-28T02:13:58;6.35;;;3.20;;
21810;SDS011;11067;48.788;9.208;2023-02-28T02:24:56;5.37;;;3.80;;
21810;SDS011;11067;48.788;9.208;2023-02-28T02:30:53;7.35;;;3.50;;
21810;SDS011;11067;48.788;9.208;2023-02-28T02:36:21;7.28;;;3.55;;
21810;SDS011;11067;48.788;9.208;2023-02-28T02:41:34;4.95;;;3.50;;
21810;SDS011;11067;48.788;9.208;2023-02-28T02:44:32;4.87;;;3.50;;
21810;SDS011;11067;48.788;9.208;2023-02-28T02:47:10;5.53;;;3.67;;
21810;SDS011;11067;48.788;9.208;2023-02-28T02:49:40;4.93;;;3.70;;
21810;SDS011;11067;48.788;9.208;2023-02-28T02:52:10;5.55;;;3.90;;
21810;SDS011;11067;48.788;9.208;2023-02-28T02:54:43;6.30;;;3.70;;
21810;SDS011;11067;48.788;9.208;2023-02-28T02:57:13;6.07;;;3.65;;
21810;SDS011;11067;48.788;9.208;2023-02-28T02:59:44;5.68;;;3.90;;
21810;SDS011;11067;48.788;9.208;2023-02-28T03:02:11;5.33;;;3.83;;
21810;SDS011;11067;48.788;9.208;2023-02-28T03:04:41;6.30;;;3.77;;
21810;SDS011;11067;48.788;9.208;2023-02-28T03:07:10;5.35;;;3.65;;
21810;SDS011;11067;48.788;9.208;2023-02-28T03:09:35;6.63;;;3.63;;
21810;SDS011;11067;48.788;9.208;2023-02-28T03:12:01;5.37;;;3.93;;
21810;SDS011;11067;48.788;9.208;2023-02-28T03:30:52;6.63;;;3.95;;
21810;SDS011;11067;48.788;9.208;2023-02-28T03:33:23;5.57;;;3.83;;
21810;SDS011;11067;48.788;9.208;2023-02-28T03:35:55;6.72;;;4.13;;
21810;SDS011;11067;48.788;9.208;2023-02-28T03:41:16;6.93;;;4.13;;
21810;SDS011;11067;48.788;9.208;2023-02-28T03:43:53;8.00;;;4.63;;
21810;SDS011;11067;48.788;9.208;2023-02-28T03:46:22;5.60;;;3.67;;
21810;SDS011;11067;48.788;9.208;2023-02-28T03:48:53;5.75;;;3.63;;
21810;SDS011;11067;48.788;9.208;2023-02-28T03:51:29;5.72;;;4.00;;
21810;SDS011;11067;48.788;9.208;2023-02-28T03:53:58;5.63;;;3.83;;
21810;SDS011;11067;48.788;9.208;2023-02-28T03:56:31;5.60;;;3.83;;
21810;SDS011;11067;48.788;9.208;2023-02-28T03:59:07;6.75;;;3.90;;
21810;SDS011;11067;48.788;9.208;2023-02-28T04:01:47;6.53;;;4.10;;
21810;SDS011;11067;48.788;9.208;2023-02-28T04:04:13;6.25;;;4.15;;
21810;SDS011;11067;48.788;9.208;2023-02-28T04:06:40;6.82;;;4.28;;
21810;SDS011;11067;48.788;9.208;2023-02-28T04:09:07;5.80;;;3.97;;
21810;SDS011;11067;48.788;9.208;2023-02-28T04:11:34;6.57;;;4.13;;
21810;SDS011;11067;48.788;9.208;2023-02-28T04:14:02;5.43;;;3.80;;
21810;SDS011;11067;48.788;9.208;2023-02-28T04:16:29;5.38;;;4.10;;
21810;SDS011;11067;48.788;9.208;2023-02-28T04:18:56;7.75;;;4.13;;
21810;SDS011;11067;48.788;9.208;2023-02-28T04:21:29;6.10;;;4.00;;
21810;SDS011;11067;48.788;9.208;2023-02-28T04:23:56;6.40;;;3.97;;
21810;SDS011;11067;48.788;9.208;2023-02-28T04:26:25;6.20;;;4.40;;
21810;SDS011;11067;48.788;9.208;2023-02-28T04:29:00;6.63;;;4.20;;
21810;SDS011;11067;48.788;9.208;2023-02-28T04:31:27;6.95;;;4.10;;
21810;SDS011;11067;48.788;9.208;2023-02-28T04:33:53;5.40;;;3.90;;
21810;SDS011;11067;48.788;9.208;2023-02-28T04:36:18;6.60;;;4.40;;
21810;SDS011;11067;48.788;9.208;2023-02-28T04:38:44;5.83;;;4.30;;
21810;SDS011;11067;48.788;9.208;2023-02-28T04:41:11;6.13;;;3.97;;
21810;SDS011;11067;48.788;9.208;2023-02-28T04:43:37;7.23;;;4.00;;
21810;SDS011;11067;48.788;9.208;2023-02-28T04:46:03;5.80;;;3.80;;
21810;SDS011;11067;48.788;9.208;2023-02-28T04:48:31;7.80;;;3.70;;
21810;SDS011;11067;48.788;9.208;2023-02-28T04:51:01;6.38;;;4.45;;
21810;SDS011;11067;48.788;9.208;2023-02-28T04:53:28;6.40;;;4.97;;
21810;SDS011;11067;48.788;9.208;2023-02-28T04:55:54;5.60;;;4.10;;
21810;SDS011;11067;48.788;9.208;2023-02-28T04:58:21;5.80;;;3.97;;
21810;SDS011;11067;48.788;9.208;2023-02-28T05:00:50;6.83;;;4.47;;
21810;SDS011;11067;48.788;9.208;2023-02-28T05:03:16;6.53;;;4.10;;
21810;SDS011;11067;48.788;9.208;2023-02-28T05:05:42;6.93;;;4.30;;
21810;SDS011;11067;48.788;9.208;2023-02-28T05:08:07;7.40;;;4.43;;
21810;SDS011;11067;48.788;9.208;2023-02-28T05:10:34;7.07;;;4.50;;
21810;SDS011;11067;48.788;9.208;2023-02-28T05:13:00;7.65;;;4.43;;
21810;SDS011;11067;48.788;9.208;2023-02-28T05:15:26;5.97;;;4.00;;
21810;SDS011;11067;48.788;9.208;2023-02-28T05:17:51;7.95;;;4.40;;
21810;SDS011;11067;48.788;9.208;2023-02-28T05:20:17;6.05;;;4.28;;
21810;SDS011;11067;48.788;9.208;2023-02-28T05:22:42;6.03;;;4.05;;
21810;SDS011;11067;48.788;9.208;2023-02-28T05:25:10;6.95;;;4.55;;
21810;SDS011;11067;48.788;9.208;2023-02-28T05:27:40;7.35;;;4.72;;
21810;SDS011;11067;48.788;9.208;2023-02-28T05:30:06;6.93;;;4.32;;
21810;SDS011;11067;48.788;9.208;2023-02-28T05:32:35;6.57;;;4.50;;
21810;SDS011;11067;48.788;9.208;2023-02-28T05:35:07;7.82;;;4.50;;
21810;SDS011;11067;48.788;9.208;2023-02-28T05:37:34;6.17;;;4.40;;
21810;SDS011;11067;48.788;9.208;2023-02-28T05:40:00;7.78;;;4.45;;
21810;SDS011;11067;48.788;9.208;2023-02-28T05:42:26;9.40;;;5.18;;
21810;SDS011;11067;48.788;9.208;2023-02-28T05:44:52;7.77;;;4.40;;
21810;SDS011;11067;48.788;9.208;2023-02-28T05:47:17;8.50;;;5.17;;
21810;SDS011;11067;48.788;9.208;2023-02-28T05:49:43;9.73;;;4.83;;
21810;SDS011;11067;48.788;9.208;2023-02-28T05:52:08;8.05;;;4.47;;
21810;SDS011;11067;48.788;9.208;2023-02-28T05:54:34;6.35;;;4.45;;
21810;SDS011;11067;48.788;9.208;2023-02-28T05:56:59;6.68;;;5.00;;
21810;SDS011;11067;48.788;9.208;2023-02-28T05:59:25;7.20;;;4.82;;
21810;SDS011;11067;48.788;9.208;2023-02-28T06:01:50;8.88;;;4.72;;
21810;SDS011;11067;48.788;9.208;2023-02-28T06:04:18;8.40;;;4.85;;
21810;SDS011;11067;48.788;9.208;2023-02-28T06:06:45;7.32;;;4.60;;
21810;SDS011;11067;48.788;9.208;2023-02-28T06:09:14;9.87;;;5.13;;
21810;SDS011;11067;48.788;9.208;2023-02-28T06:11:40;9.15;;;5.15;;
21810;SDS011;11067;48.788;9.208;2023-02-28T06:14:06;6.90;;;4.95;;
21810;SDS011;11067;48.788;9.208;2023-02-28T06:16:33;9.75;;;5.00;;
21810;SDS011;11067;48.788;9.208;2023-02-28T06:19:01;10.40;;;5.30;;
21810;SDS011;11067;48.788;9.208;2023-02-28T06:21:28;8.15;;;5.20;;
21810;SDS011;11067;48.788;9.208;2023-02-28T06:23:54;7.28;;;4.65;;
21810;SDS011;11067;48.788;9.208;2023-02-28T06:26:21;9.02;;;5.07;;
21810;SDS011;11067;48.788;9.208;2023-02-28T06:28:47;7.97;;;4.93;;
21810;SDS011;11067;48.788;9.208;2023-02-28T06:31:14;7.20;;;4.97;;
21810;SDS011;11067;48.788;9.208;2023-02-28T06:33:42;8.82;;;5.43;;
21810;SDS011;11067;48.788;9.208;2023-02-28T06:36:09;9.25;;;5.00;;
21810;SDS011;11067;48.788;9.208;2023-02-28T06:38:35;8.60;;;5.20;;
21810;SDS011;11067;48.788;9.208;2023-02-28T06:41:01;9.07;;;5.43;;
21810;SDS011;11067;48.788;9.208;2023-02-28T06:43:29;9.13;;;5.35;;
21810;SDS011;11067;48.788;9.208;2023-02-28T06:45:59;10.10;;;5.13;;
21810;SDS011;11067;48.788;9.208;2023-02-28T06:48:27;10.55;;;5.30;;
21810;SDS011;11067;48.788;9.208;2023-02-28T06:51:01;9.15;;;5.18;;
21810;SDS011;11067;48.788;9.208;2023-02-28T06:53:34;8.30;;;5.03;;
21810;SDS011;11067;48.788;9.208;2023-02-28T06:56:03;8.60;;;5.05;;
21810;SDS011;11067;48.788;9.208;2023-02-28T06:58:31;9.95;;;5.82;;
21810;SDS011;11067;48.788;9.208;2023-02-28T07:00:57;9.02;;;5.90;;
21810;SDS011;11067;48.788;9.208;2023-02-28T07:03:23;10.77;;;6.00;;
21810;SDS011;11067;48.788;9.208;2023-02-28T07:05:48;9.33;;;5.77;;
21810;SDS011;11067;48.788;9.208;2023-02-28T07:08:14;9.23;;;5.37;;
21810;SDS011;11067;48.788;9.208;2023-02-28T07:10:40;10.47;;;5.77;;
21810;SDS011;11067;48.788;9.208;2023-02-28T07:13:06;11.73;;;5.80;;
21810;SDS011;11067;48.788;9.208;2023-02-28T07:15:33;8.02;;;5.10;;
21810;SDS011;11067;48.788;9.208;2023-02-28T07:17:59;8.95;;;5.38;;
21810;SDS011;11067;48.788;9.208;2023-02-28T07:20:24;8.20;;;5.37;;
21810;SDS011;11067;48.788;9.208;2023-02-28T07:22:50;9.43;;;5.63;;
21810;SDS011;11067;48.788;9.208;2023-02-28T07:25:24;10.35;;;6.00;;
21810;SDS011;11067;48.788;9.208;2023-02-28T07:27:51;9.57;;;5.75;;
21810;SDS011;11067;48.788;9.208;2023-02-28T07:30:17;10.00;;;5.30;;
21810;SDS011;11067;48.788;9.208;2023-02-28T07:32:43;9.55;;;6.07;;
21810;SDS011;11067;48.788;9.208;2023-02-28T07:35:09;11.98;;;6.10;;
21810;SDS011;11067;48.788;9.208;2023-02-28T07:37:34;11.30;;;5.68;;
21810;SDS011;11067;48.788;9.208;2023-02-28T07:40:03;10.40;;;6.25;;
21810;SDS011;11067;48.788;9.208;2023-02-28T07:42:32;10.85;;;5.82;;
21810;SDS011;11067;48.788;9.208;2023-02-28T07:44:57;13.90;;;6.40;;
21810;SDS011;11067;48.788;9.208;2023-02-28T07:47:23;10.27;;;6.10;;
21810;SDS011;11067;48.788;9.208;2023-02-28T07:49:49;9.85;;;5.70;;
21810;SDS011;11067;48.788;9.208;2023-02-28T07:52:15;14.40;;;5.93;;
21810;SDS011;11067;48.788;9.208;2023-02-28T07:54:40;11.80;;;5.90;;
21810;SDS011;11067;48.788;9.208;2023-02-28T07:57:06;10.97;;;6.50;;
21810;SDS011;11067;48.788;9.208;2023-02-28T07:59:31;10.90;;;6.30;;
21810;SDS011;11067;48.788;9.208;2023-02-28T08:01:57;11.77;;;6.90;;
21810;SDS011;11067;48.788;9.208;2023-02-28T08:04:24;10.38;;;6.40;;
21810;SDS011;11067;48.788;9.208;2023-02-28T08:06:49;9.27;;;6.15;;
21810;SDS011;11067;48.788;9.208;2023-02-28T08:09:17;8.93;;;6.38;;
21810;SDS011;11067;48.788;9.208;2023-02-28T08:11:43;10.93;;;6.28;;
21810;SDS011;11067;48.788;9.208;2023-02-28T08:14:09;10.70;;;6.50;;
21810;SDS011;11067;48.788;9.208;2023-02-28T08:16:34;9.33;;;6.20;;
21810;SDS011;11067;48.788;9.208;2023-02-28T08:19:00;10.70;;;6.60;;
21810;SDS011;11067;48.788;9.208;2023-02-28T08:21:26;9.70;;;6.15;;
21810;SDS011;11067;48.788;9.208;2023-02-28T08:23:51;11.30;;;6.05;;
21810;SDS011;11067;48.788;9.208;2023-02-28T08:26:17;7.97;;;5.63;;
21810;SDS011;11067;48.788;9.208;2023-02-28T08:28:44;12.00;;;6.57;;
21810;SDS011;11067;48.788;9.208;2023-02-28T08:31:10;10.25;;;6.20;;
21810;SDS011;11067;48.788;9.208;2023-02-28T08:33:38;9.43;;;6.00;;
21810;SDS011;11067;48.788;9.208;2023-02-28T08:36:04;12.32;;;7.03;;
21810;SDS011;11067;48.788;9.208;2023-02-28T08:38:30;10.37;;;6.43;;
21810;SDS011;11067;48.788;9.208;2023-02-28T08:41:00;11.13;;;6.60;;
21810;SDS011;11067;48.788;9.208;2023-02-28T08:43:28;9.68;;;6.25;;
21810;SDS011;11067;48.788;9.208;2023-02-28T08:45:57;12.70;;;6.40;;
21810;SDS011;11067;48.788;9.208;2023-02-28T08:48:23;10.20;;;5.80;;
21810;SDS011;11067;48.788;9.208;2023-02-28T08:53:25;10.20;;;6.60;;
21810;SDS011;11067;48.788;9.208;2023-02-28T08:56:00;16.50;;;7.10;;
21810;SDS011;11067;48.788;9.208;2023-02-28T08:58:30;11.88;;;6.80;;
21810;SDS011;11067;48.788;9.208;2023-02-28T09:00:56;15.40;;;6.97;;
21810;SDS011;11067;48.788;9.208;2023-02-28T09:03:22;10.45;;;6.35;;
21810;SDS011;11067;48.788;9.208;2023-02-28T09:05:51;10.13;;;6.43;;
21810;SDS011;11067;48.788;9.208;2023-02-28T09:08:20;11.38;;;6.72;;
21810;SDS011;11067;48.788;9.208;2023-02-28T09:10:45;13.80;;;7.20;;
21810;SDS011;11067;48.788;9.208;2023-02-28T09:13:11;11.05;;;6.40;;
21810;SDS011;11067;48.788;9.208;2023-02-28T09:15:37;10.40;;;6.77;;
21810;SDS011;11067;48.788;9.208;2023-02-28T09:18:04;10.18;;;6.25;;
21810;SDS011;11067;48.788;9.208;2023-02-28T09:20:29;11.18;;;6.32;;
21810;SDS011;11067;48.788;9.208;2023-02-28T09:22:55;13.02;;;7.18;;
21810;SDS011;11067;48.788;9.208;2023-02-28T09:25:21;9.68;;;6.88;;
21810;SDS011;11067;48.788;9.208;2023-02-28T09:27:47;10.15;;;6.38;;
21810;SDS011;11067;48.788;9.208;2023-02-28T09:30:13;10.75;;;7.07;;
21810;SDS011;11067;48.788;9.208;2023-02-28T09:32:40;10.88;;;6.70;;
21810;SDS011;11067;48.788;9.208;2023-02-28T09:35:06;9.02;;;6.38;;
21810;SDS011;11067;48.788;9.208;2023-02-28T09:37:32;9.43;;;6.40;;
21810;SDS011;11067;48.788;9.208;2023-02-28T09:39:57;11.50;;;6.90;;
21810;SDS011;11067;48.788;9.208;2023-02-28T09:42:25;10.73;;;6.50;;
21810;SDS011;11067;48.788;9.208;2023-02-28T09:44:54;9.98;;;6.90;;
21810;SDS011;11067;48.788;9.208;2023-02-28T09:47:26;11.63;;;6.80;;
21810;SDS011;11067;48.788;9.208;2023-02-28T09:49:53;12.95;;;7.35;;
21810;SDS011;11067;48.788;9.208;2023-02-28T09:52:25;10.43;;;6.97;;
21810;SDS011;11067;48.788;9.208;2023-02-28T09:54:55;11.35;;;6.70;;
21810;SDS011;11067;48.788;9.208;2023-02-28T09:57:39;11.27;;;7.40;;
21810;SDS011;11067;48.788;9.208;2023-02-28T10:05:44;11.68;;;6.80;;
21810;SDS011;11067;48.788;9.208;2023-02-28T10:09:00;10.05;;;6.85;;
21810;SDS011;11067;48.788;9.208;2023-02-28T10:11:16;10.32;;;6.20;;
21810;SDS011;11067;48.788;9.208;2023-02-28T10:16:40;13.83;;;7.97;;
21810;SDS011;11067;48.788;9.208;2023-02-28T10:19:30;11.02;;;6.97;;
21810;SDS011;11067;48.788;9.208;2023-02-28T10:22:16;11.37;;;7.00;;
21810;SDS011;11067;48.788;9.208;2023-02-28T10:24:46;13.13;;;7.38;;
21810;SDS011;11067;48.788;9.208;2023-02-28T10:27:16;10.27;;;7.00;;
21810;SDS011;11067;48.788;9.208;2023-02-28T10:29:48;12.77;;;7.20;;
21810;SDS011;11067;48.788;9.208;2023-02-28T10:32:19;10.88;;;6.53;;
21810;SDS011;11067;48.788;9.208;2023-02-28T10:34:52;10.77;;;6.68;;
21810;SDS011;11067;48.788;9.208;2023-02-28T10:37:21;10.67;;;7.33;;
21810;SDS011;11067;48.788;9.208;2023-02-28T10:39:47;13.07;;;8.00;;
21810;SDS011;11067;48.788;9.208;2023-02-28T10:42:23;10.07;;;6.68;;
21810;SDS011;11067;48.788;9.208;2023-02-28T10:45:09;15.82;;;7.38;;
21810;SDS011;11067;48.788;9.208;2023-02-28T10:47:37;12.20;;;7.17;;
21810;SDS011;11067;48.788;9.208;2023-02-28T10:50:08;13.32;;;7.53;;
21810;SDS011;11067;48.788;9.208;2023-02-28T10:52:52;10.90;;;7.55;;
21810;SDS011;11067;48.788;9.208;2023-02-28T10:55:22;11.88;;;7.10;;
21810;SDS011;11067;48.788;9.208;2023-02-28T10:57:50;12.63;;;7.93;;
21810;SDS011;11067;48.788;9.208;2023-02-28T11:00:23;13.38;;;7.43;;
21810;SDS011;11067;48.788;9.208;2023-02-28T11:02:50;11.70;;;6.85;;
21810;SDS011;11067;48.788;9.208;2023-02-28T11:05:32;11.63;;;7.60;;
21810;SDS011;11067;48.788;9.208;2023-02-28T11:08:04;12.30;;;8.05;;
21810;SDS011;11067;48.788;9.208;2023-02-28T11:10:31;12.13;;;7.97;;
21810;SDS011;11067;48.788;9.208;2023-02-28T11:12:59;10.93;;;7.25;;
21810;SDS011;11067;48.788;9.208;2023-02-28T11:15:30;13.30;;;8.10;;
21810;SDS011;11067;48.788;9.208;2023-02-28T11:18:01;13.38;;;7.68;;
21810;SDS011;11067;48.788;9.208;2023-02-28T11:20:28;11.95;;;7.38;;
21810;SDS011;11067;48.788;9.208;2023-02-28T11:22:55;13.02;;;7.65;;
21810;SDS011;11067;48.788;9.208;2023-02-28T11:25:32;10.73;;;7.22;;
21810;SDS011;11067;48.788;9.208;2023-02-28T11:27:59;10.63;;;6.82;;
21810;SDS011;11067;48.788;9.208;2023-02-28T11:30:36;10.55;;;6.90;;
21810;SDS011;11067;48.788;9.208;2023-02-28T11:33:21;12.25;;;7.28;;
21810;SDS011;11067;48.788;9.208;2023-02-28T11:35:47;10.93;;;7.17;;
21810;SDS011;11067;48.788;9.208;2023-02-28T11:38:14;11.25;;;7.55;;
21810;SDS011;11067;48.788;9.208;2023-02-28T11:45:44;12.20;;;7.38;;
21810;SDS011;11067;48.788;9.208;2023-02-28T11:50:50;11.35;;;7.50;;
21810;SDS011;11067;48.788;9.208;2023-02-28T11:56:05;16.42;;;8.10;;
21810;SDS011;11067;48.788;9.208;2023-02-28T11:59:02;11.88;;;7.63;;
21810;SDS011;11067;48.788;9.208;2023-02-28T12:07:31;12.67;;;7.43;;
21810;SDS011;11067;48.788;9.208;2023-02-28T12:10:17;11.90;;;7.45;;
21810;SDS011;11067;48.788;9.208;2023-02-28T12:12:54;10.60;;;7.30;;
21810;SDS011;11067;48.788;9.208;2023-02-28T12:26:40;10.63;;;7.40;;
21810;SDS011;11067;48.788;9.208;2023-02-28T12:31:55;12.15;;;7.30;;
21810;SDS011;11067;48.788;9.208;2023-02-28T12:34:31;13.67;;;7.17;;
21810;SDS011;11067;48.788;9.208;2023-02-28T12:37:00;13.82;;;7.30;;
21810;SDS011;11067;48.788;9.208;2023-02-28T12:39:28;11.95;;;7.07;;
21810;SDS011;11067;48.788;9.208;2023-02-28T12:41:59;9.95;;;6.90;;
21810;SDS011;11067;48.788;9.208;2023-02-28T12:44:30;9.48;;;6.60;;
21810;SDS011;11067;48.788;9.208;2023-02-28T12:47:03;11.32;;;7.38;;
21810;SDS011;11067;48.788;9.208;2023-02-28T12:49:39;9.90;;;6.75;;
21810;SDS011;11067;48.788;9.208;2023-02-28T12:52:10;12.17;;;7.87;;
21810;SDS011;11067;48.788;9.208;2023-02-28T12:54:47;11.70;;;7.07;;
21810;SDS011;11067;48.788;9.208;2023-02-28T12:57:24;10.52;;;7.00;;
21810;SDS011;11067;48.788;9.208;2023-02-28T12:59:58;11.55;;;7.07;;
21810;SDS011;11067;48.788;9.208;2023-02-28T13:11:24;11.70;;;7.55;;
21810;SDS011;11067;48.788;9.208;2023-02-28T13:14:00;11.30;;;7.25;;
21810;SDS011;11067;48.788;9.208;2023-02-28T13:16:32;11.85;;;7.43;;
21810;SDS011;11067;48.788;9.208;2023-02-28T13:19:37;12.17;;;7.00;;
21810;SDS011;11067;48.788;9.208;2023-02-28T13:22:15;9.55;;;6.55;;
21810;SDS011;11067;48.788;9.208;2023-02-28T13:24:45;11.38;;;7.10;;
21810;SDS011;11067;48.788;9.208;2023-02-28T13:29:40;12.07;;;8.23;;
21810;SDS011;11067;48.788;9.208;2023-02-28T13:39:50;10.37;;;7.20;;
21810;SDS011;11067;48.788;9.208;2023-02-28T14:01:29;10.40;;;7.20;;
21810;SDS011;11067;48.788;9.208;2023-02-28T14:04:15;10.77;;;7.38;;
21810;SDS011;11067;48.788;9.208;2023-02-28T14:06:48;10.82;;;7.07;;
21810;SDS011;11067;48.788;9.208;2023-02-28T14:18:03;14.13;;;6.80;;
21810;SDS011;11067;48.788;9.208;2023-02-28T14:20:39;9.85;;;6.65;;
21810;SDS011;11067;48.788;9.208;2023-02-28T14:23:07;10.38;;;6.60;;
21810;SDS011;11067;48.788;9.208;2023-02-28T14:25:47;9.57;;;6.63;;
21810;SDS011;11067;48.788;9.208;2023-02-28T14:31:23;10.27;;;6.83;;
21810;SDS011;11067;48.788;9.208;2023-02-28T14:37:00;9.18;;;6.40;;
21810;SDS011;11067;48.788;9.208;2023-02-28T14:39:27;11.57;;;6.80;;
21810;SDS011;11067;48.788;9.208;2023-02-28T14:41:59;11.70;;;6.68;;
21810;SDS011;11067;48.788;9.208;2023-02-28T14:44:29;9.48;;;6.43;;
21810;SDS011;11067;48.788;9.208;2023-02-28T14:46:56;9.55;;;6.05;;
21810;SDS011;11067;48.788;9.208;2023-02-28T14:54:41;9.75;;;6.13;;
21810;SDS011;11067;48.788;9.208;2023-02-28T14:57:22;9.93;;;6.70;;
21810;SDS011;11067;48.788;9.208;2023-02-28T15:02:30;11.23;;;6.60;;
21810;SDS011;11067;48.788;9.208;2023-02-28T15:04:59;13.02;;;7.00;;
21810;SDS011;11067;48.788;9.208;2023-02-28T15:07:34;9.85;;;6.82;;
21810;SDS011;11067;48.788;9.208;2023-02-28T15:10:16;11.13;;;7.13;;
21810;SDS011;11067;48.788;9.208;2023-02-28T15:12:57;9.50;;;6.63;;
21810;SDS011;11067;48.788;9.208;2023-02-28T15:15:49;10.13;;;6.75;;
21810;SDS011;11067;48.788;9.208;2023-02-28T15:21:20;10.93;;;6.53;;
21810;SDS011;11067;48.788;9.208;2023-02-28T15:26:20;12.75;;;7.90;;
21810;SDS011;11067;48.788;9.208;2023-02-28T15:28:51;12.68;;;7.38;;
21810;SDS011;11067;48.788;9.208;2023-02-28T15:31:29;13.50;;;7.35;;
21810;SDS011;11067;48.788;9.208;2023-02-28T15:34:02;10.15;;;7.07;;
21810;SDS011;11067;48.788;9.208;2023-02-28T15:36:30;13.38;;;6.88;;
21810;SDS011;11067;48.788;9.208;2023-02-28T15:38:58;12.18;;;7.28;;
21810;SDS011;11067;48.788;9.208;2023-02-28T15:41:26;12.17;;;7.40;;
21810;SDS011;11067;48.788;9.208;2023-02-28T15:46:39;12.70;;;7.33;;
21810;SDS011;11067;48.788;9.208;2023-02-28T15:49:19;11.55;;;6.30;;
21810;SDS011;11067;48.788;9.208;2023-02-28T15:51:46;9.43;;;6.75;;
21810;SDS011;11067;48.788;9.208;2023-02-28T15:54:18;11.48;;;7.95;;
21810;SDS011;11067;48.788;9.208;2023-02-28T15:56:50;11.63;;;7.13;;
21810;SDS011;11067;48.788;9.208;2023-02-28T15:59:19;10.57;;;7.13;;
21810;SDS011;11067;48.788;9.208;2023-02-28T16:05:46;9.90;;;7.10;;
21810;SDS011;11067;48.788;9.208;2023-02-28T16:07:43;11.75;;;7.35;;
21810;SDS011;11067;48.788;9.208;2023-02-28T16:10:10;11.05;;;7.15;;
21810;SDS011;11067;48.788;9.208;2023-02-28T16:12:38;13.13;;;7.07;;
21810;SDS011;11067;48.788;9.208;2023-02-28T16:15:08;11.57;;;7.57;;
21810;SDS011;11067;48.788;9.208;2023-02-28T16:17:45;10.90;;;6.93;;
21810;SDS011;11067;48.788;9.208;2023-02-28T16:20:12;12.23;;;6.85;;
21810;SDS011;11067;48.788;9.208;2023-02-28T16:22:38;12.20;;;7.57;;
21810;SDS011;11067;48.788;9.208;2023-02-28T16:28:04;12.93;;;7.40;;
21810;SDS011;11067;48.788;9.208;2023-02-28T16:30:37;10.52;;;7.40;;
21810;SDS011;11067;48.788;9.208;2023-02-28T16:33:02;11.37;;;7.63;;
21810;SDS011;11067;48.788;9.208;2023-02-28T16:35:28;10.77;;;7.23;;
21810;SDS011;11067;48.788;9.208;2023-02-28T16:37:53;10.35;;;6.88;;
21810;SDS011;11067;48.788;9.208;2023-02-28T16:40:20;10.90;;;7.22;;
21810;SDS011;11067;48.788;9.208;2023-02-28T16:42:51;9.52;;;7.25;;
21810;SDS011;11067;48.788;9.208;2023-02-28T16:45:23;10.05;;;6.82;;
21810;SDS011;11067;48.788;9.208;2023-02-28T16:47:50;9.95;;;6.97;;
21810;SDS011;11067;48.788;9.208;2023-02-28T16:50:17;14.13;;;7.63;;
21810;SDS011;11067;48.788;9.208;2023-02-28T16:52:45;11.30;;;7.37;;
21810;SDS011;11067;48.788;9.208;2023-02-28T16:55:11;9.43;;;6.78;;
21810;SDS011;11067;48.788;9.208;2023-02-28T16:57:37;10.98;;;7.70;;
21810;SDS011;11067;48.788;9.208;2023-02-28T17:00:03;14.40;;;7.10;;
21810;SDS011;11067;48.788;9.208;2023-02-28T17:02:33;10.40;;;7.35;;
21810;SDS011;11067;48.788;9.208;2023-02-28T17:04:59;11.75;;;7.13;;
21810;SDS011;11067;48.788;9.208;2023-02-28T17:07:24;12.90;;;7.50;;
21810;SDS011;11067;48.788;9.208;2023-02-28T17:09:50;11.05;;;7.68;;
21810;SDS011;11067;48.788;9.208;2023-02-28T17:12:15;13.48;;;7.90;;
21810;SDS011;11067;48.788;9.208;2023-02-28T17:14:41;12.50;;;7.43;;
21810;SDS011;11067;48.788;9.208;2023-02-28T17:17:06;11.90;;;7.60;;
21810;SDS011;11067;48.788;9.208;2023-02-28T17:19:32;11.52;;;7.40;;
21810;SDS011;11067;48.788;9.208;2023-02-28T17:22:00;12.00;;;7.27;;
21810;SDS011;11067;48.788;9.208;2023-02-28T17:24:28;12.13;;;7.47;;
21810;SDS011;11067;48.788;9.208;2023-02-28T17:26:53;13.95;;;8.10;;
21810;SDS011;11067;48.788;9.208;2023-02-28T17:29:19;13.23;;;7.75;;